This is the latest recevied weather packets stored in our database for station/object DG4MND-4. If no packets are shown the sender has not sent any weather packets the latest 10 day(s).
| Time | Temp. | Humidity | Pressure | Rain* | Wind** | Luminosity | Snow |
|---|---|---|---|---|---|---|---|
| 1777809075 | 25° C | 33% | 1013.7 hPa | 0 mm | - | - | - |
| 1777808471 | 25° C | 35% | 1013.8 hPa | 0 mm | - | - | - |
| 1777807871 | 25° C | 36% | 1013.9 hPa | 0 mm | - | - | - |
| 1777807264 | 25° C | 37% | 1014 hPa | 0 mm | - | - | - |
| 1777806661 | 25° C | 36% | 1014 hPa | 0 mm | - | - | - |
| 1777806057 | 24.44° C | 38% | 1014.2 hPa | 0 mm | - | - | - |
| 1777805454 | 23.89° C | 39% | 1014.4 hPa | 0 mm | - | - | - |
| 1777804851 | 25° C | 37% | 1014.5 hPa | 0 mm | - | - | - |
| 1777804250 | 23.89° C | 38% | 1014.6 hPa | 0 mm | - | - | - |
| 1777803644 | 22.78° C | 40% | 1014.8 hPa | 0 mm | - | - | - |
| 1777803043 | 22.78° C | 40% | 1014.8 hPa | 0 mm | - | - | - |
| 1777802437 | 22.78° C | 40% | 1014.9 hPa | 0 mm | - | - | - |
| 1777801834 | 22.78° C | 40% | 1015 hPa | 0 mm | - | - | - |
| 1777801233 | 23.33° C | 39% | 1015.1 hPa | 0 mm | - | - | - |
| 1777800626 | 22.22° C | 44% | 1015.2 hPa | 0 mm | - | - | - |
| 1777800026 | 22.22° C | 47% | 1015.2 hPa | 0 mm | - | - | - |
| 1777799420 | 21.67° C | 48% | 1015.2 hPa | 0 mm | - | - | - |
| 1777798816 | 20.56° C | 51% | 1015.5 hPa | 0 mm | - | - | - |
| 1777798273 | 20.56° C | 51% | 1015.6 hPa | 0 mm | - | - | - |
| 1777797670 | 20.56° C | 52% | 1015.6 hPa | 0 mm | - | - | - |
| 1777797066 | 20.56° C | 50% | 1015.6 hPa | 0 mm | - | - | - |
| 1777796466 | 20.56° C | 51% | 1015.6 hPa | 0 mm | - | - | - |
| 1777795859 | 19.44° C | 52% | 1015.6 hPa | 0 mm | - | - | - |
| 1777795264 | 20° C | 52% | 1015.6 hPa | 0 mm | - | - | - |
| 1777794652 | 19.44° C | 52% | 1015.6 hPa | 0 mm | - | - | - |
* Rain latest hour (hover to see other rain measurements)
** Current wind speed in m/s (hover to see current wind gust speed)